To NAV CANADA Home Page Login to a new session Search on AWWS site Disclaimer Vers la page française équivalente Tips FAQ What's new on the site To the Forecasts and Observations / NOTAM section To "File a Flight Plan" website Publications and other links Update of the User's profile FIC Telephone Numbers My Weather Data Folder Route Weather Data Regional Weather Data Local Weather Data To the Forecasts and Observations / NOTAM section
Request Generated 12/17/2018 at 00:11:45 UTC . Weather information available at that time is displayed.

METAR/TAF

CHATHAM-KENT/ON    (show WxCam)

METAR CYCK 170000Z AUTO 21008KT 5SM BR CLR 01/00 A2997 RMK SLP157=
SPECI CYCK 162352Z AUTO 20007KT 5SM BR CLR 00/M00 A2997 RMK SLP157=
METAR CYCK 162300Z AUTO 21007KT 6SM BR CLR 01/01 A2998 RMK SLP161=
SPECI CYCK 162250Z AUTO 21007KT 6SM BR CLR 02/01 A2998 RMK SLP160=
SPECI CYCK 162236Z AUTO 20008KT 5SM BR CLR 02/01 A2998 RMK SLP161=
METAR CYCK 162200Z AUTO 21007KT 9SM CLR 02/01 A2998 RMK SLP161=

CYCK - No TAF is issued for this station

Your time UTC time
Weather data provided by Environment Canada and NAV CANADA